Time;durP1;ratioP1;P1;durP2;ratioP2;P2;SDS_P1;SDS_P2;PMS_P1;PMS_P2;Temp;Humidity;BMP_temperature;BMP_pressure;BME280_temperature;BME280_humidity;BME280_pressure;Samples;Min_cycle;Max_cycle;Signal;HPM_P1;HPM_P2
2022/11/14 00:02:17;;;;;;;85.80;61.90;;;16.50;66.50;;;;;;4950134;28;95893;-58
2022/11/14 00:04:47;;;;;;;86.05;60.97;;;16.50;66.70;;;;;;4953299;28;95053;-58
2022/11/14 00:07:13;;;;;;;84.82;60.88;;;16.50;66.50;;;;;;4949245;28;100092;-58
2022/11/14 00:09:41;;;;;;;84.85;59.95;;;16.50;66.60;;;;;;4951316;28;96688;-59
2022/11/14 00:12:08;;;;;;;86.63;61.47;;;16.40;66.80;;;;;;4945519;28;95536;-58
2022/11/14 00:14:34;;;;;;;83.72;59.67;;;16.50;66.50;;;;;;4949845;28;96168;-58
2022/11/14 00:17:00;;;;;;;82.95;60.50;;;16.50;66.60;;;;;;4941740;28;95468;-57
2022/11/14 00:19:26;;;;;;;83.72;59.83;;;16.50;66.60;;;;;;4949446;28;96228;-58
2022/11/14 00:21:52;;;;;;;84.10;60.05;;;16.50;66.50;;;;;;4939552;28;95984;-57
2022/11/14 00:24:18;;;;;;;81.70;59.00;;;16.50;66.60;;;;;;4954969;28;95144;-57
2022/11/14 00:26:44;;;;;;;84.55;59.67;;;16.50;66.30;;;;;;4947759;28;96149;-58
2022/11/14 00:29:14;;;;;;;83.65;60.03;;;16.50;66.40;;;;;;4956568;28;94875;-58
2022/11/14 00:31:40;;;;;;;81.85;59.45;;;16.50;66.30;;;;;;4946555;28;95024;-57
2022/11/14 00:34:05;;;;;;;83.18;59.15;;;16.40;66.30;;;;;;4952897;28;95375;-58
2022/11/14 00:36:32;;;;;;;83.53;59.70;;;16.40;66.40;;;;;;4945111;28;94092;-57
2022/11/14 00:38:57;;;;;;;82.72;59.40;;;16.40;66.40;;;;;;4943713;28;95719;-58
2022/11/14 00:41:24;;;;;;;80.22;58.15;;;16.40;66.50;;;;;;4947829;28;95112;-58
2022/11/14 00:43:49;;;;;;;79.88;58.17;;;16.40;66.20;;;;;;4943132;28;98271;-56
2022/11/14 00:46:15;;;;;;;81.15;58.65;;;16.30;66.40;;;;;;4951239;28;95133;-58
2022/11/14 00:48:41;;;;;;;80.97;58.47;;;16.30;66.30;;;;;;4950157;28;95008;-57
2022/11/14 00:51:07;;;;;;;80.28;58.13;;;16.30;66.50;;;;;;4955439;28;95279;-58
2022/11/14 00:53:32;;;;;;;81.15;58.13;;;16.30;66.50;;;;;;4950838;28;95195;-58
2022/11/14 00:55:58;;;;;;;79.90;58.30;;;16.30;66.20;;;;;;4944256;28;94965;-58
2022/11/14 00:58:24;;;;;;;83.18;59.05;;;16.30;66.30;;;;;;4941762;28;95972;-58
2022/11/14 01:00:50;;;;;;;79.53;57.45;;;16.30;66.40;;;;;;4946500;28;95459;-57
2022/11/14 01:03:16;;;;;;;80.97;58.05;;;16.30;66.20;;;;;;4946565;28;95472;-57
2022/11/14 01:05:44;;;;;;;79.68;58.42;;;16.30;66.20;;;;;;4946649;28;95134;-58
2022/11/14 01:08:10;;;;;;;81.95;58.08;;;16.30;66.30;;;;;;4954302;28;98627;-58
2022/11/14 01:10:40;;;;;;;80.47;57.72;;;16.30;66.20;;;;;;4942793;28;95077;-58
2022/11/14 01:13:06;;;;;;;79.47;57.53;;;16.30;66.30;;;;;;4947695;28;97132;-58
2022/11/14 01:15:32;;;;;;;79.55;57.53;;;16.20;66.20;;;;;;4944468;28;95561;-56
2022/11/14 01:17:57;;;;;;;78.63;57.13;;;16.30;66.10;;;;;;4952616;28;95891;-58
2022/11/14 01:20:23;;;;;;;79.85;56.45;;;16.30;66.00;;;;;;4945765;28;95155;-58
2022/11/14 01:22:49;;;;;;;79.47;56.42;;;16.30;66.20;;;;;;4947308;28;96905;-58
2022/11/14 01:25:20;;;;;;;77.68;56.90;;;16.20;66.10;;;;;;4948880;28;96245;-58
2022/11/14 01:27:45;;;;;;;77.80;57.25;;;16.20;66.10;;;;;;4949534;28;95477;-57
2022/11/14 01:30:12;;;;;;;77.28;56.92;;;16.30;66.00;;;;;;4951360;28;95378;-58
2022/11/14 01:32:37;;;;;;;77.78;56.38;;;16.20;65.90;;;;;;4944994;28;97803;-57
2022/11/14 01:35:03;;;;;;;78.15;56.85;;;16.20;66.10;;;;;;4946845;28;95300;-56
2022/11/14 01:37:29;;;;;;;77.30;56.85;;;16.10;66.30;;;;;;4946495;28;94940;-58
2022/11/14 01:39:54;;;;;;;76.53;56.20;;;16.20;66.20;;;;;;4944579;28;96531;-58
2022/11/14 01:42:20;;;;;;;76.80;56.03;;;16.20;66.10;;;;;;4951373;28;97277;-58
2022/11/14 01:44:53;;;;;;;77.40;56.03;;;16.10;66.00;;;;;;4947332;28;95053;-57
2022/11/14 01:47:22;;;;;;;75.80;55.55;;;16.10;66.20;;;;;;4948690;28;97018;-57
2022/11/14 01:49:56;;;;;;;76.88;55.97;;;16.20;66.20;;;;;;4942567;28;95029;-58
2022/11/14 01:52:24;;;;;;;75.00;55.35;;;16.20;65.90;;;;;;4945597;28;96488;-57
2022/11/14 01:54:53;;;;;;;76.93;55.72;;;16.20;65.90;;;;;;4948346;28;95588;-58
2022/11/14 01:57:26;;;;;;;75.03;55.15;;;16.10;66.00;;;;;;4944585;28;97430;-57
2022/11/14 01:59:54;;;;;;;75.38;55.45;;;16.10;66.00;;;;;;4939243;28;96264;-58
2022/11/14 02:02:23;;;;;;;77.05;55.53;;;16.10;66.00;;;;;;4940065;28;94760;-56
2022/11/14 02:05:00;;;;;;;75.57;54.78;;;16.10;66.10;;;;;;4945707;28;95520;-57
2022/11/14 02:07:28;;;;;;;76.30;55.58;;;16.00;66.00;;;;;;4947110;28;95342;-58
2022/11/14 02:09:54;;;;;;;75.45;55.25;;;16.10;66.00;;;;;;4951239;28;96257;-58
2022/11/14 02:12:21;;;;;;;76.10;54.67;;;16.00;65.90;;;;;;4956113;28;96303;-57
2022/11/14 02:14:50;;;;;;;74.93;55.22;;;16.10;66.10;;;;;;4941078;28;98813;-59
2022/11/14 02:17:18;;;;;;;74.95;54.72;;;16.00;66.00;;;;;;4945506;28;95669;-57
2022/11/14 02:20:09;;;;;;;76.05;54.83;;;16.00;66.00;;;;;;4946466;28;94704;-57
2022/11/14 02:22:35;;;;;;;74.65;54.65;;;16.00;65.90;;;;;;4943723;28;96860;-57
2022/11/14 02:25:01;;;;;;;74.47;54.80;;;16.00;66.00;;;;;;4944233;28;94975;-58
2022/11/14 02:27:30;;;;;;;73.97;54.35;;;16.00;65.90;;;;;;4948771;28;96333;-58
2022/11/14 02:30:11;;;;;;;74.75;55.60;;;16.00;65.90;;;;;;4948037;28;95257;-58
2022/11/14 02:32:36;;;;;;;74.80;54.72;;;16.00;66.00;;;;;;4947690;28;95566;-58
2022/11/14 02:35:02;;;;;;;74.78;54.35;;;15.90;65.90;;;;;;4943764;28;96562;-58
2022/11/14 02:37:28;;;;;;;73.80;54.30;;;15.90;66.10;;;;;;4952337;28;95324;-57
2022/11/14 02:39:53;;;;;;;74.50;54.97;;;15.90;66.00;;;;;;4950341;28;95621;-57
2022/11/14 02:42:19;;;;;;;74.28;54.83;;;15.90;66.00;;;;;;4943533;28;97169;-58
2022/11/14 02:44:44;;;;;;;74.10;54.53;;;15.90;66.10;;;;;;4945606;28;95270;-57
2022/11/14 02:47:10;;;;;;;75.15;54.38;;;15.90;66.20;;;;;;4948081;28;95825;-57
2022/11/14 02:49:36;;;;;;;74.05;54.25;;;15.90;66.10;;;;;;4950110;28;97043;-58
2022/11/14 02:52:01;;;;;;;74.90;54.45;;;15.90;66.10;;;;;;4947037;28;95466;-58
2022/11/14 02:54:27;;;;;;;74.05;54.30;;;15.90;66.00;;;;;;4948946;28;96227;-58
2022/11/14 02:56:52;;;;;;;73.22;54.38;;;15.80;65.90;;;;;;4952284;28;95297;-58
2022/11/14 02:59:18;;;;;;;74.93;55.13;;;15.80;66.00;;;;;;4945507;28;95060;-57
2022/11/14 03:01:44;;;;;;;74.25;54.03;;;15.80;66.00;;;;;;4955785;28;96525;-59
2022/11/14 03:04:09;;;;;;;74.35;54.47;;;15.80;66.10;;;;;;4945488;28;98286;-57
2022/11/14 03:06:35;;;;;;;73.05;53.95;;;15.80;66.10;;;;;;4950661;28;95895;-57
2022/11/14 03:09:01;;;;;;;73.63;54.13;;;15.80;66.00;;;;;;4951141;28;94654;-58
2022/11/14 03:11:26;;;;;;;74.13;54.47;;;15.80;66.00;;;;;;4944939;28;96171;-57
2022/11/14 03:13:52;;;;;;;73.55;54.00;;;15.80;66.20;;;;;;4945958;28;94783;-57
2022/11/14 03:16:18;;;;;;;74.75;54.00;;;15.80;66.20;;;;;;4952755;28;95269;-58
2022/11/14 03:18:43;;;;;;;71.95;53.70;;;15.80;66.10;;;;;;4946953;28;95247;-58
2022/11/14 03:21:15;;;;;;;73.47;54.42;;;15.80;65.90;;;;;;4944892;28;96879;-57
2022/11/14 03:23:41;;;;;;;72.13;53.72;;;15.70;65.90;;;;;;4947465;28;96227;-58
2022/11/14 03:26:08;;;;;;;72.88;53.95;;;15.80;66.00;;;;;;4939339;28;95875;-56
2022/11/14 03:28:35;;;;;;;72.82;54.28;;;15.80;66.00;;;;;;4944400;28;95576;-57
2022/11/14 03:31:00;;;;;;;72.05;53.17;;;15.70;65.80;;;;;;4937089;28;96055;-58
2022/11/14 03:33:26;;;;;;;74.07;54.30;;;15.70;66.00;;;;;;4946863;28;94958;-58
2022/11/14 03:35:52;;;;;;;73.47;53.80;;;15.70;66.50;;;;;;4943949;28;96792;-58
2022/11/14 03:38:21;;;;;;;73.60;53.83;;;15.70;66.00;;;;;;4946667;28;96669;-57
2022/11/14 03:40:48;;;;;;;73.80;54.42;;;15.70;66.00;;;;;;4941288;28;95877;-58
2022/11/14 03:43:13;;;;;;;73.15;53.88;;;15.70;66.10;;;;;;4955970;28;95683;-56
2022/11/14 03:45:39;;;;;;;73.13;53.30;;;15.70;66.20;;;;;;4942758;28;96856;-59
2022/11/14 03:48:06;;;;;;;73.95;53.58;;;15.70;65.90;;;;;;4941626;28;98497;-57
2022/11/14 03:50:32;;;;;;;72.75;54.00;;;15.70;66.00;;;;;;4947116;28;95331;-57
2022/11/14 03:52:57;;;;;;;73.38;53.53;;;15.70;65.90;;;;;;4948220;28;94312;-57
2022/11/14 03:55:23;;;;;;;73.75;53.80;;;15.60;66.00;;;;;;4951048;28;94632;-58
2022/11/14 03:57:49;;;;;;;72.03;52.95;;;15.60;65.90;;;;;;4949677;28;95498;-58
2022/11/14 04:00:15;;;;;;;74.15;54.22;;;15.60;65.90;;;;;;4946152;28;96314;-58
2022/11/14 04:02:41;;;;;;;71.68;53.20;;;15.60;65.80;;;;;;4943434;28;95450;-58
2022/11/14 04:05:07;;;;;;;71.88;53.25;;;15.60;66.10;;;;;;4939830;28;95262;-59
2022/11/14 04:07:32;;;;;;;73.35;53.33;;;15.60;65.80;;;;;;4939375;28;97026;-60
2022/11/14 04:09:58;;;;;;;72.68;53.60;;;15.60;65.60;;;;;;4944047;28;96561;-57
2022/11/14 04:12:24;;;;;;;72.30;53.28;;;15.60;65.90;;;;;;4943679;28;94933;-59
2022/11/14 04:14:49;;;;;;;73.45;53.80;;;15.60;65.80;;;;;;4947725;28;97571;-58
2022/11/14 04:17:15;;;;;;;72.72;53.60;;;15.60;65.90;;;;;;4945483;28;95539;-59
2022/11/14 04:19:40;;;;;;;71.60;52.95;;;15.60;65.80;;;;;;4944531;28;95056;-58
2022/11/14 04:22:06;;;;;;;71.50;53.15;;;15.60;65.70;;;;;;4941002;28;95404;-58
2022/11/14 04:24:32;;;;;;;71.72;52.90;;;15.60;65.60;;;;;;4941858;28;101319;-58
2022/11/14 04:26:58;;;;;;;71.78;52.80;;;15.50;65.70;;;;;;4948144;28;95979;-60
2022/11/14 04:29:23;;;;;;;71.65;53.35;;;15.50;65.90;;;;;;4942517;28;94904;-58
2022/11/14 04:31:49;;;;;;;72.68;53.53;;;15.50;66.50;;;;;;4946621;28;96461;-57
2022/11/14 04:34:14;;;;;;;72.45;53.95;;;15.50;65.70;;;;;;4941001;28;99218;-58
2022/11/14 04:36:40;;;;;;;71.60;52.80;;;15.50;66.00;;;;;;4947211;28;95207;-58
2022/11/14 04:39:06;;;;;;;71.55;53.00;;;15.50;65.90;;;;;;4944783;28;95097;-57
2022/11/14 04:41:31;;;;;;;71.78;53.67;;;15.50;65.80;;;;;;4943618;28;94849;-58
2022/11/14 04:43:57;;;;;;;72.07;53.33;;;15.50;65.70;;;;;;4942995;28;96006;-58
2022/11/14 04:46:23;;;;;;;71.93;53.33;;;15.50;65.90;;;;;;4937205;28;95486;-56
2022/11/14 04:48:48;;;;;;;70.78;52.47;;;15.50;65.70;;;;;;4944305;28;96245;-58
2022/11/14 04:51:14;;;;;;;71.18;52.42;;;15.50;65.70;;;;;;4942689;28;95048;-57
2022/11/14 04:53:40;;;;;;;71.22;52.75;;;15.40;65.70;;;;;;4947448;28;95123;-58
2022/11/14 04:56:05;;;;;;;71.63;52.75;;;15.50;65.70;;;;;;4942395;28;100293;-58
2022/11/14 04:58:31;;;;;;;71.47;53.08;;;15.50;65.70;;;;;;4943217;28;94882;-58
2022/11/14 05:00:57;;;;;;;71.65;53.03;;;15.50;65.60;;;;;;4936845;28;99417;-56
2022/11/14 05:03:23;;;;;;;71.22;52.88;;;15.40;65.60;;;;;;4947357;28;95591;-58
2022/11/14 05:05:49;;;;;;;71.40;52.75;;;15.40;65.80;;;;;;4937211;28;96270;-59
2022/11/14 05:08:15;;;;;;;72.00;53.40;;;15.40;66.50;;;;;;4939265;28;97509;-57
2022/11/14 05:10:44;;;;;;;71.53;52.55;;;15.40;65.70;;;;;;4949904;28;94723;-58
2022/11/14 05:13:11;;;;;;;71.75;52.85;;;15.40;65.50;;;;;;4947713;28;97014;-57
2022/11/14 05:15:36;;;;;;;71.53;52.95;;;15.40;65.50;;;;;;4939362;28;96746;-58
2022/11/14 05:18:02;;;;;;;72.13;53.00;;;15.40;65.60;;;;;;4950558;28;99392;-58
2022/11/14 05:20:28;;;;;;;71.10;52.38;;;15.40;65.60;;;;;;4950144;28;95931;-58
2022/11/14 05:22:55;;;;;;;71.45;52.55;;;15.40;65.50;;;;;;4943034;28;96526;-58
2022/11/14 05:25:21;;;;;;;69.53;52.08;;;15.40;65.40;;;;;;4949724;28;95976;-59
2022/11/14 05:27:47;;;;;;;70.82;52.80;;;15.40;65.60;;;;;;4949637;28;94918;-58
2022/11/14 05:30:13;;;;;;;72.00;52.72;;;15.40;65.80;;;;;;4941409;28;95729;-58
2022/11/14 05:32:39;;;;;;;72.72;53.35;;;15.40;65.80;;;;;;4939809;28;95208;-58
2022/11/14 05:35:05;;;;;;;71.65;52.38;;;15.40;65.60;;;;;;4944102;28;95154;-58
2022/11/14 05:37:31;;;;;;;73.15;53.35;;;15.30;65.80;;;;;;4937203;28;97619;-58
2022/11/14 05:39:56;;;;;;;71.35;53.20;;;15.30;65.70;;;;;;4949783;28;96390;-58
2022/11/14 05:42:22;;;;;;;71.93;52.72;;;15.30;65.60;;;;;;4948140;28;95243;-57
2022/11/14 05:44:48;;;;;;;72.35;53.80;;;15.40;65.60;;;;;;4949587;28;95325;-58
2022/11/14 05:47:13;;;;;;;72.72;53.55;;;15.40;65.60;;;;;;4950923;28;95358;-59
2022/11/14 05:49:39;;;;;;;73.63;53.15;;;15.30;65.50;;;;;;4952999;28;94857;-58
2022/11/14 05:52:05;;;;;;;73.43;53.17;;;15.30;65.50;;;;;;4947598;28;95231;-58
2022/11/14 05:54:30;;;;;;;73.35;53.67;;;15.30;65.30;;;;;;4949986;28;94785;-58
2022/11/14 05:56:56;;;;;;;75.28;53.05;;;15.30;65.60;;;;;;4950045;28;96110;-59
2022/11/14 05:59:21;;;;;;;73.72;53.65;;;15.30;65.30;;;;;;4948499;28;95048;-58
2022/11/14 06:01:47;;;;;;;72.38;53.10;;;15.30;65.40;;;;;;4936419;28;96864;-58
2022/11/14 06:04:14;;;;;;;73.22;53.40;;;15.30;65.30;;;;;;4950133;28;96084;-57
2022/11/14 06:06:39;;;;;;;72.35;52.90;;;15.30;65.50;;;;;;4947346;28;94880;-59
2022/11/14 06:09:05;;;;;;;71.60;53.47;;;15.20;65.40;;;;;;4941087;28;96556;-59
2022/11/14 06:11:31;;;;;;;75.72;53.35;;;15.30;65.60;;;;;;4939598;28;95972;-58
2022/11/14 06:13:56;;;;;;;72.80;53.20;;;15.20;65.50;;;;;;4947313;28;96365;-58
2022/11/14 06:16:23;;;;;;;76.38;53.08;;;15.20;65.70;;;;;;4932025;28;95290;-58
2022/11/14 06:18:52;;;;;;;71.90;52.97;;;15.20;65.90;;;;;;4935245;28;94251;-58
2022/11/14 06:21:19;;;;;;;73.18;53.95;;;15.30;65.80;;;;;;4924677;28;99805;-58
2022/11/14 06:23:46;;;;;;;71.28;52.80;;;15.20;65.80;;;;;;4933791;28;95905;-56
2022/11/14 06:26:21;;;;;;;77.28;52.97;;;15.30;65.90;;;;;;4949894;28;95777;-59
2022/11/14 06:28:50;;;;;;;72.70;53.30;;;15.40;66.20;;;;;;4940432;28;96668;-59
2022/11/14 06:31:17;;;;;;;75.30;52.88;;;15.30;66.00;;;;;;4944510;28;96138;-58
2022/11/14 06:33:43;;;;;;;73.68;52.95;;;15.40;65.90;;;;;;4934205;28;95900;-58
2022/11/14 06:36:09;;;;;;;79.88;57.55;;;15.50;65.30;;;;;;4941403;28;95912;-58
2022/11/14 06:38:37;;;;;;;76.68;56.00;;;15.50;65.90;;;;;;4931986;28;95410;-58
2022/11/14 06:41:10;;;;;;;77.80;56.60;;;15.30;66.20;;;;;;4938008;28;97086;-58
2022/11/14 06:43:38;;;;;;;80.65;56.35;;;15.30;67.10;;;;;;4942589;28;96999;-58
2022/11/14 06:46:05;;;;;;;81.30;55.90;;;15.30;67.70;;;;;;4946690;28;95350;-56
2022/11/14 06:48:31;;;;;;;81.13;56.17;;;15.30;68.40;;;;;;4935472;28;95119;-54
2022/11/14 06:50:58;;;;;;;79.30;56.20;;;15.40;68.80;;;;;;4939678;28;97596;-55
2022/11/14 06:53:26;;;;;;;84.47;56.00;;;15.30;69.50;;;;;;4943175;28;97346;-56
2022/11/14 06:55:56;;;;;;;82.15;55.85;;;15.30;70.00;;;;;;4939219;28;94492;-52
2022/11/14 06:58:23;;;;;;;81.47;55.75;;;15.30;70.20;;;;;;4944853;28;95339;-52
2022/11/14 07:00:49;;;;;;;85.45;57.58;;;15.30;70.40;;;;;;4934394;28;95442;-55
2022/11/14 07:03:15;;;;;;;85.70;56.63;;;15.30;70.50;;;;;;4936048;28;95174;-55
2022/11/14 07:05:40;;;;;;;82.53;56.33;;;15.30;70.50;;;;;;4940144;28;96660;-54
2022/11/14 07:08:06;;;;;;;82.22;56.05;;;15.30;70.30;;;;;;4941762;28;95008;-52
2022/11/14 07:10:31;;;;;;;79.32;56.10;;;15.30;70.40;;;;;;4946449;28;99921;-52
2022/11/14 07:12:57;;;;;;;82.25;55.97;;;15.40;70.50;;;;;;4940010;28;97858;-57
2022/11/14 07:15:23;;;;;;;82.60;55.85;;;15.40;69.60;;;;;;4941631;28;96034;-55
2022/11/14 07:17:48;;;;;;;84.57;56.03;;;15.40;70.30;;;;;;4945104;28;97051;-58
2022/11/14 07:20:17;;;;;;;80.38;55.67;;;15.50;70.40;;;;;;4944219;28;101058;-56
2022/11/14 07:22:44;;;;;;;76.35;54.75;;;15.40;70.30;;;;;;4943391;28;96531;-56
2022/11/14 07:25:10;;;;;;;78.65;55.67;;;15.40;70.20;;;;;;4941532;28;97892;-51
2022/11/14 07:27:35;;;;;;;83.40;55.05;;;15.50;70.10;;;;;;4936757;28;97664;-55
2022/11/14 07:30:01;;;;;;;80.75;55.05;;;15.60;70.20;;;;;;4937428;28;95908;-56
2022/11/14 07:32:27;;;;;;;80.10;55.25;;;15.60;69.90;;;;;;4947177;28;95084;-54
2022/11/14 07:34:52;;;;;;;80.85;55.03;;;15.60;69.80;;;;;;4942920;28;96025;-55
2022/11/14 07:37:18;;;;;;;80.68;55.33;;;15.60;69.50;;;;;;4939939;28;96054;-56
2022/11/14 07:39:44;;;;;;;77.85;54.42;;;15.50;69.30;;;;;;4949113;28;96189;-50
2022/11/14 07:42:10;;;;;;;75.90;54.30;;;15.50;69.40;;;;;;4944995;28;95995;-51
2022/11/14 07:44:36;;;;;;;77.80;54.17;;;15.50;69.50;;;;;;4940381;28;95763;-56
2022/11/14 07:47:02;;;;;;;78.45;54.83;;;15.60;69.20;;;;;;4938033;28;94824;-56
2022/11/14 07:49:27;;;;;;;76.40;55.08;;;15.60;69.00;;;;;;4950243;28;95327;-51
2022/11/14 07:51:53;;;;;;;76.50;54.08;;;15.60;69.00;;;;;;4946889;28;94978;-54
2022/11/14 07:54:18;;;;;;;78.00;54.80;;;15.60;69.10;;;;;;4939229;28;100145;-52
2022/11/14 07:56:44;;;;;;;78.82;54.65;;;15.60;68.90;;;;;;4945881;28;94385;-57
2022/11/14 07:59:10;;;;;;;77.15;53.95;;;15.60;68.90;;;;;;4933567;28;96134;-56
2022/11/14 08:01:35;;;;;;;80.10;54.30;;;15.50;68.40;;;;;;4933752;28;95075;-55
2022/11/14 08:04:01;;;;;;;75.45;54.03;;;15.40;68.50;;;;;;4939833;28;96283;-55
2022/11/14 08:06:27;;;;;;;76.90;54.72;;;15.30;68.70;;;;;;4940449;28;98069;-52
2022/11/14 08:08:53;;;;;;;78.72;54.60;;;15.30;68.80;;;;;;4942757;28;95197;-55
2022/11/14 08:11:46;;;;;;;80.55;54.58;;;15.50;68.40;;;;;;4941000;28;95997;-57
2022/11/14 08:14:04;;;;;;;74.10;53.75;;;15.50;68.30;;;;;;4937442;28;95212;-58
2022/11/14 08:16:30;;;;;;;78.07;54.00;;;15.50;68.40;;;;;;4954686;28;95086;-58
2022/11/14 08:18:55;;;;;;;75.50;53.58;;;15.50;68.30;;;;;;4940992;28;95651;-56
2022/11/14 08:21:21;;;;;;;76.10;53.78;;;15.50;68.00;;;;;;4941868;28;94826;-57
2022/11/14 08:23:46;;;;;;;75.60;53.63;;;15.50;68.00;;;;;;4938907;28;96022;-57
2022/11/14 08:26:12;;;;;;;74.07;53.15;;;15.50;68.00;;;;;;4948351;28;96955;-58
2022/11/14 08:28:38;;;;;;;75.50;53.83;;;15.50;68.00;;;;;;4936085;28;96051;-55
2022/11/14 08:31:04;;;;;;;73.40;53.28;;;15.40;68.00;;;;;;4938581;28;96471;-57
2022/11/14 08:33:30;;;;;;;72.57;53.63;;;15.50;67.90;;;;;;4943009;28;95558;-57
2022/11/14 08:36:03;;;;;;;73.63;52.97;;;15.40;67.60;;;;;;4948062;28;94803;-52
2022/11/14 08:38:30;;;;;;;75.85;53.05;;;15.40;67.90;;;;;;4942660;28;95323;-53
2022/11/14 08:41:02;;;;;;;75.75;53.20;;;15.40;67.70;;;;;;4934965;28;99082;-52
2022/11/14 08:43:29;;;;;;;74.65;53.92;;;15.20;67.70;;;;;;4944845;28;94745;-55
2022/11/14 08:46:03;;;;;;;75.63;52.95;;;15.20;67.80;;;;;;4943615;28;94358;-50
2022/11/14 08:48:30;;;;;;;75.72;54.70;;;15.30;67.60;;;;;;4939638;28;97820;-54
2022/11/14 08:50:56;;;;;;;76.30;54.35;;;15.30;67.40;;;;;;4944277;28;94649;-55
2022/11/14 08:53:22;;;;;;;75.55;54.05;;;15.30;67.30;;;;;;4944195;28;97363;-50
2022/11/14 08:55:48;;;;;;;73.65;54.28;;;15.40;67.10;;;;;;4939584;28;94800;-52
2022/11/14 08:58:14;;;;;;;73.82;53.88;;;15.30;67.00;;;;;;4935196;28;97510;-53
2022/11/14 09:00:41;;;;;;;73.80;53.45;;;15.30;67.00;;;;;;4940356;28;96670;-56
2022/11/14 09:03:08;;;;;;;75.05;53.95;;;15.40;66.90;;;;;;4942660;28;95026;-53
2022/11/14 09:05:34;;;;;;;74.95;54.03;;;15.40;67.20;;;;;;4944339;28;95844;-57
2022/11/14 09:08:00;;;;;;;78.07;53.70;;;15.40;66.70;;;;;;4930335;28;95454;-56
2022/11/14 09:10:25;;;;;;;77.45;54.38;;;15.50;66.50;;;;;;4939290;28;94013;-57
2022/11/14 09:12:58;;;;;;;73.40;53.70;;;15.50;66.10;;;;;;4946391;28;94999;-56
2022/11/14 09:15:24;;;;;;;74.05;53.53;;;15.70;65.90;;;;;;4942765;28;95553;-57
2022/11/14 09:17:56;;;;;;;74.97;53.53;;;15.80;65.60;;;;;;4939913;28;97606;-54
2022/11/14 09:20:23;;;;;;;73.47;53.72;;;15.80;65.80;;;;;;4939858;28;98766;-55
2022/11/14 09:22:52;;;;;;;74.63;53.13;;;15.80;64.90;;;;;;4945696;28;96381;-53
2022/11/14 09:25:18;;;;;;;78.10;53.50;;;15.80;65.00;;;;;;4944976;28;96483;-53
2022/11/14 09:27:44;;;;;;;73.43;53.33;;;15.90;64.80;;;;;;4941979;28;95190;-54
2022/11/14 09:30:10;;;;;;;73.72;53.08;;;16.00;65.00;;;;;;4932886;28;96214;-51
2022/11/14 09:32:36;;;;;;;75.13;53.53;;;16.00;64.70;;;;;;4948936;28;95355;-51
2022/11/14 09:35:03;;;;;;;72.55;52.85;;;16.10;64.90;;;;;;4941779;28;94780;-52
2022/11/14 09:37:28;;;;;;;73.07;53.40;;;16.00;64.60;;;;;;4941295;28;96518;-54
2022/11/14 09:39:54;;;;;;;73.65;53.22;;;16.10;64.90;;;;;;4934462;28;95572;-52
2022/11/14 09:42:38;;;;;;;75.38;52.80;;;16.10;64.70;;;;;;4945728;28;97193;-54
2022/11/14 09:45:09;;;;;;;73.15;53.53;;;16.10;64.50;;;;;;4949599;28;95581;-55
2022/11/14 09:47:43;;;;;;;73.97;53.47;;;16.10;64.50;;;;;;4934717;28;95097;-57
2022/11/14 09:50:16;;;;;;;73.18;52.80;;;16.20;64.60;;;;;;4943182;28;95555;-55
2022/11/14 09:52:46;;;;;;;74.60;53.35;;;16.20;64.50;;;;;;4954420;28;95452;-53
2022/11/14 09:55:21;;;;;;;73.22;53.28;;;16.20;64.50;;;;;;4946050;28;96211;-54
2022/11/14 09:57:47;;;;;;;72.03;52.85;;;16.20;63.80;;;;;;4936972;28;95823;-53
2022/11/14 10:00:18;;;;;;;72.88;53.17;;;16.20;64.10;;;;;;4945043;28;97748;-54
2022/11/14 10:03:09;;;;;;;76.50;53.83;;;16.20;64.50;;;;;;4943682;28;95181;-54
2022/11/14 10:05:55;;;;;;;74.43;53.55;;;16.20;65.00;;;;;;4939238;28;94926;-55
2022/11/14 10:09:02;;;;;;;74.53;53.53;;;16.20;66.00;;;;;;4942348;28;96613;-52
2022/11/14 10:11:40;;;;;;;72.95;53.28;;;16.20;64.40;;;;;;4942836;28;98653;-54
2022/11/14 10:14:18;;;;;;;74.05;53.70;;;16.30;64.00;;;;;;4923854;28;95074;-52
2022/11/14 10:17:04;;;;;;;74.57;53.03;;;16.40;63.80;;;;;;4936581;28;96161;-55
2022/11/14 10:19:36;;;;;;;75.03;53.97;;;16.40;63.40;;;;;;4936831;28;94732;-52
2022/11/14 10:22:17;;;;;;;77.53;53.03;;;16.40;63.20;;;;;;4950808;28;94978;-51
2022/11/14 10:24:58;;;;;;;74.35;53.33;;;16.40;63.10;;;;;;4942796;28;98186;-57
2022/11/14 10:27:37;;;;;;;73.55;53.10;;;16.50;62.90;;;;;;4940387;28;94615;-56
2022/11/14 10:30:09;;;;;;;75.75;53.30;;;16.50;62.20;;;;;;4937061;28;97856;-55
2022/11/14 10:32:40;;;;;;;74.35;53.13;;;16.50;61.90;;;;;;4936119;28;95148;-53
2022/11/14 10:35:28;;;;;;;74.60;53.50;;;16.60;62.10;;;;;;4939381;28;98579;-51
2022/11/14 10:38:30;;;;;;;74.28;52.85;;;16.60;62.40;;;;;;4946607;28;97309;-57
2022/11/14 10:41:00;;;;;;;;;;;16.60;62.40;;;;;;4946665;28;97330;-58
2022/11/14 10:43:34;;;;;;;73.90;53.15;;;16.60;62.10;;;;;;4940647;28;95248;-56
2022/11/14 10:46:24;;;;;;;74.65;53.15;;;16.60;62.50;;;;;;4941461;28;94999;-57
2022/11/14 10:48:50;;;;;;;76.22;53.70;;;16.70;61.80;;;;;;4935830;28;96160;-58
2022/11/14 10:51:29;;;;;;;75.07;53.33;;;16.60;62.20;;;;;;4936119;28;96309;-53
2022/11/14 10:54:17;;;;;;;75.80;53.10;;;16.60;62.40;;;;;;4932336;28;96577;-56
2022/11/14 10:56:52;;;;;;;73.20;52.75;;;16.60;62.30;;;;;;4939897;28;98100;-57
2022/11/14 10:59:18;;;;;;;74.30;53.13;;;16.60;62.20;;;;;;4941435;28;95103;-56
2022/11/14 11:01:51;;;;;;;77.70;54.28;;;16.60;61.90;;;;;;4944575;28;96509;-56
2022/11/14 11:04:46;;;;;;;75.15;53.65;;;16.60;62.00;;;;;;4941312;28;95944;-57
2022/11/14 11:11:28;;;;;;;73.43;53.03;;;16.60;61.80;;;;;;4950298;28;94963;-55
2022/11/14 11:12:48;;;;;;;73.97;53.63;;;16.70;61.40;;;;;;4954772;28;95654;-57
2022/11/14 11:15:19;;;;;;;76.70;53.22;;;16.70;61.30;;;;;;4941065;28;95302;-56
2022/11/14 11:17:56;;;;;;;74.80;52.90;;;16.70;61.20;;;;;;4939739;28;95152;-55
2022/11/14 11:20:25;;;;;;;74.40;53.80;;;16.70;61.30;;;;;;4940021;28;94694;-54
2022/11/14 11:23:06;;;;;;;74.80;54.08;;;16.70;61.00;;;;;;4941952;28;95364;-55
2022/11/14 11:25:33;;;;;;;75.70;53.70;;;16.70;60.90;;;;;;4955980;28;95076;-57
2022/11/14 11:28:16;;;;;;;75.25;53.10;;;16.70;60.90;;;;;;4947410;28;96400;-56
2022/11/14 11:30:59;;;;;;;73.85;52.88;;;16.70;60.90;;;;;;4938842;28;95003;-57
2022/11/14 11:33:30;;;;;;;74.10;53.03;;;16.70;60.90;;;;;;4947615;28;97256;-56
2022/11/14 11:36:00;;;;;;;73.68;52.97;;;16.70;60.80;;;;;;4946276;28;95443;-56
2022/11/14 11:38:28;;;;;;;74.43;53.15;;;16.70;60.80;;;;;;4945727;28;96961;-55
2022/11/14 11:41:05;;;;;;;72.72;52.88;;;16.70;61.00;;;;;;4955825;28;95126;-55
2022/11/14 11:43:46;;;;;;;73.85;53.00;;;16.60;60.90;;;;;;4943477;28;95335;-56
2022/11/14 11:46:21;;;;;;;77.45;53.40;;;16.60;61.10;;;;;;4942198;28;95122;-58
2022/11/14 11:48:54;;;;;;;73.78;52.90;;;16.60;61.30;;;;;;4945101;28;95017;-56
2022/11/14 11:51:24;;;;;;;76.82;53.20;;;16.60;61.20;;;;;;4940096;28;98182;-57
2022/11/14 11:54:03;;;;;;;73.32;53.08;;;16.60;61.30;;;;;;4957884;28;96582;-57
2022/11/14 11:56:32;;;;;;;73.60;53.00;;;16.60;61.20;;;;;;4942557;28;95681;-57
2022/11/14 11:59:15;;;;;;;75.05;53.22;;;16.50;61.30;;;;;;4943435;28;97717;-57
2022/11/14 12:01:41;;;;;;;74.38;52.42;;;16.50;61.20;;;;;;4954143;28;95336;-56
2022/11/14 12:04:06;;;;;;;74.78;54.15;;;16.50;61.40;;;;;;4947553;28;96865;-57
2022/11/14 12:06:43;;;;;;;75.43;53.22;;;16.40;61.70;;;;;;4953813;28;95133;-59
2022/11/14 12:09:23;;;;;;;74.03;53.42;;;16.50;61.70;;;;;;4950559;28;95378;-57
2022/11/14 12:11:56;;;;;;;73.45;52.83;;;16.40;61.80;;;;;;4944476;28;98261;-55
2022/11/14 12:14:39;;;;;;;72.95;52.97;;;16.40;62.00;;;;;;4937602;28;95215;-56
2022/11/14 12:17:46;;;;;;;76.57;56.63;;;16.30;62.10;;;;;;4944820;28;96113;-56
2022/11/14 12:20:17;;;;;;;74.15;54.15;;;16.20;62.50;;;;;;4922347;28;98263;-55
2022/11/14 12:22:49;;;;;;;75.07;53.67;;;16.40;62.20;;;;;;4943340;28;98470;-57
2022/11/14 12:25:20;;;;;;;;;;;16.50;61.80;;;;;;4938104;28;95372;-53
2022/11/14 12:28:03;;;;;;;74.13;54.10;;;16.50;62.00;;;;;;4952125;28;95065;-56
2022/11/14 12:30:31;;;;;;;73.72;53.83;;;16.50;62.60;;;;;;4942254;28;99162;-56
2022/11/14 12:33:03;;;;;;;74.93;53.53;;;16.60;63.30;;;;;;4945345;28;95390;-54
2022/11/14 12:35:32;;;;;;;75.50;53.47;;;16.50;63.70;;;;;;4942462;28;95502;-55
2022/11/14 12:38:00;;;;;;;76.00;54.03;;;16.50;63.70;;;;;;4940818;28;100352;-54
2022/11/14 12:40:36;;;;;;;74.82;53.90;;;16.60;63.80;;;;;;4950411;28;95080;-52